Time;durP1;ratioP1;P1;durP2;ratioP2;P2;SDS_P1;SDS_P2;PMS_P1;PMS_P2;Temp;Humidity;BMP_temperature;BMP_pressure;BME280_temperature;BME280_humidity;BME280_pressure;Samples;Min_cycle;Max_cycle;Signal;HPM_P1;HPM_P2
2022/12/13 00:00:47;;;;;;;28.43;16.90;;;-2.10;99.90;;;;;;5035827;28;20820;-86
2022/12/13 00:03:15;;;;;;;31.10;16.77;;;-2.10;99.90;;;;;;5035310;28;20471;-85
2022/12/13 00:05:45;;;;;;;29.90;16.40;;;-2.20;99.90;;;;;;5035777;28;20448;-82
2022/12/13 00:08:12;;;;;;;28.70;15.87;;;-2.20;99.90;;;;;;5035857;28;20453;-86
2022/12/13 00:10:43;;;;;;;25.40;15.03;;;-2.20;99.90;;;;;;5036150;28;20535;-83
2022/12/13 00:13:09;;;;;;;27.47;15.50;;;-2.30;99.90;;;;;;5035963;28;20444;-84
2022/12/13 00:15:36;;;;;;;28.63;15.67;;;-2.30;99.90;;;;;;5035080;28;20441;-85
2022/12/13 00:18:05;;;;;;;30.93;15.80;;;-2.30;99.90;;;;;;5024314;28;20445;-84
2022/12/13 00:20:32;;;;;;;31.60;15.97;;;-2.30;99.90;;;;;;5033205;28;20460;-82
2022/12/13 00:23:00;;;;;;;30.93;15.67;;;-2.40;99.90;;;;;;5035717;28;20441;-87
2022/12/13 00:25:27;;;;;;;29.60;16.00;;;-2.50;99.90;;;;;;5033549;28;20531;-87
2022/12/13 00:27:55;;;;;;;27.70;15.73;;;-2.40;99.90;;;;;;5024084;28;20441;-87
2022/12/13 00:30:22;;;;;;;29.33;16.03;;;-2.40;99.90;;;;;;5035119;28;20456;-83
2022/12/13 00:32:49;;;;;;;27.13;15.47;;;-2.40;99.90;;;;;;5034855;28;20463;-83
2022/12/13 00:35:18;;;;;;;31.67;15.57;;;-2.50;99.90;;;;;;5035289;28;20495;-84
2022/12/13 00:37:44;;;;;;;30.23;15.67;;;-2.40;99.90;;;;;;5034910;28;20460;-84
2022/12/13 00:40:12;;;;;;;30.10;14.87;;;-2.40;99.90;;;;;;5035212;28;20835;-85
2022/12/13 00:42:39;;;;;;;29.83;15.30;;;-2.50;99.90;;;;;;5035100;28;20449;-82
2022/12/13 00:45:06;;;;;;;28.57;16.43;;;-2.50;99.90;;;;;;5035091;28;20449;-85
2022/12/13 00:47:33;;;;;;;26.80;15.30;;;-2.40;99.90;;;;;;5034699;28;20464;-81
2022/12/13 00:50:00;;;;;;;31.33;16.30;;;-2.50;99.90;;;;;;5035177;28;20441;-82
2022/12/13 00:52:28;;;;;;;29.27;15.33;;;-2.50;99.90;;;;;;5030924;28;20458;-84
2022/12/13 00:54:55;;;;;;;32.97;16.80;;;-2.40;99.90;;;;;;5034561;28;20499;-84
2022/12/13 00:57:22;;;;;;;31.57;15.97;;;-2.40;99.90;;;;;;5025952;28;20449;-86
2022/12/13 00:59:49;;;;;;;29.03;15.43;;;-2.40;99.90;;;;;;5029729;28;20448;-84
2022/12/13 01:02:16;;;;;;;31.70;15.77;;;-2.40;99.90;;;;;;5034284;28;20817;-85
2022/12/13 01:04:44;;;;;;;33.80;16.23;;;-2.30;99.90;;;;;;5034642;28;20448;-84
2022/12/13 01:07:12;;;;;;;35.63;16.03;;;-2.30;99.90;;;;;;5034763;28;21018;-84
2022/12/13 01:09:46;;;;;;;29.57;15.17;;;-2.30;99.90;;;;;;5022297;28;20464;-83
2022/12/13 01:12:13;;;;;;;25.33;14.80;;;-2.30;99.90;;;;;;5033774;28;20449;-84
2022/12/13 01:14:40;;;;;;;27.40;15.00;;;-2.30;99.90;;;;;;5034270;28;20480;-83
2022/12/13 01:17:08;;;;;;;33.13;15.50;;;-2.30;99.90;;;;;;5034111;28;20441;-84
2022/12/13 01:19:35;;;;;;;27.27;14.83;;;-2.30;99.90;;;;;;5034414;28;20451;-81
2022/12/13 01:22:04;;;;;;;24.33;14.03;;;-2.30;99.90;;;;;;5034329;28;20456;-83
2022/12/13 01:24:32;;;;;;;35.30;21.40;;;-2.30;99.90;;;;;;5033243;28;20431;-85
2022/12/13 01:27:00;;;;;;;31.83;16.60;;;-2.20;99.90;;;;;;5033822;28;20202;-83
2022/12/13 01:29:27;;;;;;;31.67;16.30;;;-2.20;99.90;;;;;;5033961;28;20857;-81
2022/12/13 01:31:54;;;;;;;27.33;14.90;;;-2.30;99.90;;;;;;5034082;28;20463;-84
2022/12/13 01:34:22;;;;;;;28.30;14.57;;;-2.30;99.90;;;;;;5034282;28;20502;-85
2022/12/13 01:36:49;;;;;;;27.10;14.93;;;-2.30;99.90;;;;;;5034406;28;20795;-85
2022/12/13 01:39:19;;;;;;;29.63;15.10;;;-2.30;99.90;;;;;;5033548;28;20972;-83
2022/12/13 01:41:50;;;;;;;33.40;15.73;;;-2.30;99.90;;;;;;5033983;28;20449;-82
2022/12/13 01:45:08;;;;;;;28.53;14.60;;;-2.30;99.90;;;;;;5033716;28;20456;-83
2022/12/13 01:47:42;;;;;;;30.03;14.53;;;-2.30;99.90;;;;;;5011875;28;20461;-83
2022/12/13 01:50:12;;;;;;;26.13;14.43;;;-2.30;99.90;;;;;;5012198;28;20441;-83
2022/12/13 01:52:42;;;;;;;34.10;16.17;;;-2.20;99.90;;;;;;5022871;28;20844;-81
2022/12/13 01:55:12;;;;;;;30.73;15.13;;;-2.30;99.90;;;;;;5034204;28;20223;-83
2022/12/13 01:57:42;;;;;;;26.30;14.10;;;-2.30;99.90;;;;;;5033482;28;20928;-80
2022/12/13 02:00:12;;;;;;;24.77;13.80;;;-2.30;99.90;;;;;;5033542;28;20455;-82
2022/12/13 02:02:40;;;;;;;27.00;14.93;;;-2.30;99.90;;;;;;5033762;28;20456;-84
2022/12/13 02:05:11;;;;;;;27.70;15.10;;;-2.30;99.90;;;;;;5033712;28;20802;-81
2022/12/13 02:07:41;;;;;;;27.70;14.60;;;-2.30;99.90;;;;;;5033674;28;20451;-82
2022/12/13 02:10:10;;;;;;;29.47;14.23;;;-2.30;99.90;;;;;;5033394;28;20982;-80
2022/12/13 02:12:39;;;;;;;25.67;15.53;;;-2.30;99.90;;;;;;5033538;28;20463;-80
2022/12/13 02:15:11;;;;;;;23.73;13.93;;;-2.30;99.90;;;;;;5033190;28;20499;-80
2022/12/13 02:17:54;;;;;;;26.53;14.13;;;-2.30;99.90;;;;;;5033764;28;20447;-81
2022/12/13 02:20:52;;;;;;;29.47;14.27;;;-2.30;99.90;;;;;;5033512;28;20454;-84
2022/12/13 02:24:00;;;;;;;26.87;15.57;;;-2.40;99.90;;;;;;5033189;28;20951;-80
2022/12/13 02:26:48;;;;;;;25.43;14.40;;;-2.40;99.90;;;;;;5033227;28;20436;-80
2022/12/13 02:29:52;;;;;;;28.63;15.87;;;-2.50;99.90;;;;;;5033505;28;20437;-81
2022/12/13 02:32:29;;;;;;;28.80;15.07;;;-2.50;99.90;;;;;;5033211;28;20464;-79
2022/12/13 02:35:02;;;;;;;29.53;16.70;;;-2.50;99.90;;;;;;5032900;28;20487;-82
2022/12/13 02:37:38;;;;;;;31.90;16.07;;;-2.50;99.90;;;;;;5033085;28;20448;-82
2022/12/13 02:40:12;;;;;;;28.07;16.50;;;-2.50;99.90;;;;;;5035839;28;20479;-82
2022/12/13 02:42:47;;;;;;;26.00;14.87;;;-2.50;99.90;;;;;;5036988;28;20436;-79
2022/12/13 02:45:20;;;;;;;30.37;15.50;;;-2.50;99.90;;;;;;5037157;28;20448;-81
2022/12/13 02:47:52;;;;;;;29.43;15.93;;;-2.50;99.90;;;;;;5036950;28;20459;-81
2022/12/13 02:50:20;;;;;;;30.90;15.83;;;-2.50;99.90;;;;;;5036939;28;20449;-83
2022/12/13 02:52:49;;;;;;;29.07;17.03;;;-2.60;99.90;;;;;;5037100;28;20443;-82
2022/12/13 02:55:17;;;;;;;29.93;16.27;;;-2.60;99.90;;;;;;5036851;28;20487;-81
2022/12/13 02:57:47;;;;;;;32.10;16.83;;;-2.60;99.90;;;;;;5036865;28;20436;-81
2022/12/13 03:00:17;;;;;;;30.70;16.53;;;-2.60;99.90;;;;;;5036887;28;20858;-82
2022/12/13 03:02:55;;;;;;;30.93;16.73;;;-2.60;99.90;;;;;;5036604;28;20451;-80
2022/12/13 03:08:25;;;;;;;34.27;16.77;;;-2.70;99.90;;;;;;5036247;28;20448;-80
2022/12/13 03:11:04;;;;;;;34.90;16.20;;;-2.70;99.90;;;;;;5036670;28;20443;-84
2022/12/13 03:13:38;;;;;;;32.00;16.97;;;-2.70;99.90;;;;;;5036772;28;20455;-84
2022/12/13 03:16:14;;;;;;;31.67;17.90;;;-2.70;99.90;;;;;;5036738;28;20491;-84
2022/12/13 03:18:44;;;;;;;32.93;17.50;;;-2.70;99.90;;;;;;5036545;28;20444;-83
2022/12/13 03:21:12;;;;;;;35.33;18.50;;;-2.80;99.90;;;;;;5036913;28;20447;-88
2022/12/13 03:23:40;;;;;;;35.53;16.97;;;-2.80;99.90;;;;;;5036846;28;20447;-82
2022/12/13 03:26:11;;;;;;;33.77;18.10;;;-2.80;99.90;;;;;;5036468;28;20452;-85
2022/12/13 03:28:38;;;;;;;31.23;16.03;;;-2.80;99.90;;;;;;5036657;28;20467;-85
2022/12/13 03:31:08;;;;;;;32.40;16.63;;;-2.80;99.90;;;;;;5036583;28;20911;-80
2022/12/13 03:33:35;;;;;;;30.47;16.50;;;-2.80;99.90;;;;;;5036451;28;20459;-85
2022/12/13 03:36:04;;;;;;;37.13;17.17;;;-2.80;99.90;;;;;;5036427;28;20486;-85
2022/12/13 03:38:31;;;;;;;34.17;17.70;;;-2.80;99.90;;;;;;5036157;28;20437;-81
2022/12/13 03:41:03;;;;;;;31.33;16.33;;;-2.80;99.90;;;;;;5036447;28;20449;-82
2022/12/13 03:43:30;;;;;;;30.03;16.83;;;-2.80;99.90;;;;;;5036393;28;20439;-82
2022/12/13 03:45:57;;;;;;;33.17;16.47;;;-2.80;99.90;;;;;;5036231;28;20445;-83
2022/12/13 03:48:23;;;;;;;33.13;16.83;;;-2.90;99.90;;;;;;5036266;28;20452;-84
2022/12/13 03:50:51;;;;;;;40.45;24.52;;;-2.90;99.90;;;;;;5034724;28;20423;-83
2022/12/13 03:53:20;;;;;;;32.93;19.10;;;-2.80;99.90;;;;;;5036390;28;20195;-84
2022/12/13 03:55:47;;;;;;;33.20;17.97;;;-2.80;99.90;;;;;;5035794;28;20484;-85
2022/12/13 03:58:14;;;;;;;31.07;16.73;;;-2.80;99.90;;;;;;5035980;28;20818;-85
2022/12/13 04:00:41;;;;;;;30.93;15.97;;;-2.80;99.90;;;;;;5035921;28;20451;-82
2022/12/13 04:03:08;;;;;;;29.13;15.67;;;-2.90;99.90;;;;;;5036149;28;20478;-82
2022/12/13 04:05:34;;;;;;;28.33;15.07;;;-2.90;99.90;;;;;;5035750;28;20809;-84
2022/12/13 04:08:01;;;;;;;29.00;15.97;;;-2.90;99.90;;;;;;5035618;28;20441;-85
2022/12/13 04:10:34;;;;;;;32.20;15.90;;;-2.90;99.90;;;;;;5035686;28;20455;-86
2022/12/13 04:15:48;;;;;;;27.27;15.47;;;-2.90;99.90;;;;;;5035618;28;20979;-80
2022/12/13 04:18:16;;;;;;;28.33;15.90;;;-2.90;99.90;;;;;;5035473;28;21005;-81
2022/12/13 04:20:42;;;;;;;28.57;15.47;;;-3.00;99.90;;;;;;5035696;28;20445;-81
2022/12/13 04:23:10;;;;;;;29.97;15.30;;;-3.00;99.90;;;;;;5035063;28;20443;-82
2022/12/13 04:25:41;;;;;;;32.47;15.63;;;-3.00;99.90;;;;;;5035119;28;20504;-81
2022/12/13 04:28:08;;;;;;;30.50;15.70;;;-2.90;99.90;;;;;;5035356;28;20441;-83
2022/12/13 04:30:36;;;;;;;26.43;15.40;;;-3.00;99.90;;;;;;5035486;28;20444;-82
2022/12/13 04:33:03;;;;;;;26.57;15.27;;;-3.00;99.90;;;;;;5035281;28;20466;-82
2022/12/13 04:35:30;;;;;;;29.17;15.77;;;-2.90;99.90;;;;;;5035246;28;20867;-80
2022/12/13 04:37:57;;;;;;;28.63;16.20;;;-3.00;99.90;;;;;;5034809;28;20810;-84
2022/12/13 04:40:24;;;;;;;28.03;15.00;;;-2.90;99.90;;;;;;5035009;28;20971;-79
2022/12/13 04:42:53;;;;;;;32.43;16.33;;;-2.90;99.90;;;;;;5034758;28;20453;-81
2022/12/13 04:45:21;;;;;;;32.83;16.07;;;-3.00;99.90;;;;;;5035012;28;20811;-80
2022/12/13 04:47:48;;;;;;;28.53;14.60;;;-2.90;99.90;;;;;;5034950;28;20455;-82
2022/12/13 04:50:17;;;;;;;25.30;14.70;;;-2.90;99.90;;;;;;5034950;28;20432;-82
2022/12/13 04:52:44;;;;;;;26.53;15.33;;;-2.90;99.90;;;;;;5034828;28;20825;-83
2022/12/13 04:55:11;;;;;;;26.97;15.17;;;-2.90;99.90;;;;;;5032237;28;20546;-84
2022/12/13 04:57:38;;;;;;;25.40;14.83;;;-2.90;99.90;;;;;;5034741;28;20452;-84
2022/12/13 05:00:12;;;;;;;24.67;15.63;;;-3.00;99.90;;;;;;5034423;28;20820;-81
2022/12/13 05:02:40;;;;;;;31.50;16.03;;;-3.00;99.90;;;;;;5034297;28;20611;-84
2022/12/13 05:05:08;;;;;;;27.90;15.63;;;-3.00;99.90;;;;;;5034669;28;20448;-84
2022/12/13 05:07:35;;;;;;;26.67;15.63;;;-3.10;99.90;;;;;;5034206;28;20967;-82
2022/12/13 05:10:03;;;;;;;26.90;16.27;;;-3.10;99.90;;;;;;5033691;28;20939;-82
2022/12/13 05:12:30;;;;;;;25.70;15.73;;;-3.00;99.90;;;;;;5028409;28;20441;-80
2022/12/13 05:14:57;;;;;;;29.40;14.93;;;-3.10;99.90;;;;;;5027002;28;20479;-80
2022/12/13 05:17:27;;;;;;;26.63;16.13;;;-3.10;99.90;;;;;;5034269;28;20455;-80
2022/12/13 05:19:54;;;;;;;24.73;14.47;;;-3.10;99.90;;;;;;5034168;28;20445;-80
2022/12/13 05:22:20;;;;;;;27.43;15.50;;;-3.10;99.90;;;;;;5034123;28;20794;-80
2022/12/13 05:24:48;;;;;;;27.80;15.37;;;-3.10;99.90;;;;;;5033749;28;20524;-78
2022/12/13 05:27:15;;;;;;;26.33;15.37;;;-3.10;99.90;;;;;;5034066;28;20452;-81
2022/12/13 05:29:42;;;;;;;25.03;13.87;;;-3.10;99.90;;;;;;5026723;28;20459;-81
2022/12/13 05:32:08;;;;;;;23.77;13.83;;;-3.10;99.90;;;;;;5027795;28;20479;-82
2022/12/13 05:34:37;;;;;;;26.63;15.00;;;-3.10;99.90;;;;;;5033534;28;20971;-80
2022/12/13 05:37:03;;;;;;;26.33;15.33;;;-3.10;99.90;;;;;;5033743;28;20499;-80
2022/12/13 05:39:30;;;;;;;25.03;14.60;;;-3.00;99.90;;;;;;5033748;28;20480;-79
2022/12/13 05:41:59;;;;;;;32.87;15.43;;;-3.10;99.90;;;;;;5033807;28;20452;-81
2022/12/13 05:44:26;;;;;;;25.27;14.77;;;-3.10;99.90;;;;;;5033868;28;21009;-78
2022/12/13 05:46:52;;;;;;;24.70;14.80;;;-3.10;99.90;;;;;;5033858;28;20444;-78
2022/12/13 05:49:19;;;;;;;27.57;14.37;;;-3.20;99.90;;;;;;5034045;28;20440;-80
2022/12/13 05:51:48;;;;;;;24.27;14.33;;;-3.20;99.90;;;;;;5033707;28;20498;-81
2022/12/13 05:54:15;;;;;;;23.13;14.30;;;-3.20;99.90;;;;;;5034238;28;20523;-84
2022/12/13 05:56:41;;;;;;;29.87;14.00;;;-3.20;99.90;;;;;;5033841;28;20498;-79
2022/12/13 05:59:08;;;;;;;23.77;14.30;;;-3.20;99.90;;;;;;5034877;28;20452;-83
2022/12/13 06:01:35;;;;;;;24.47;14.73;;;-3.20;99.90;;;;;;5032070;28;20453;-83
2022/12/13 06:04:02;;;;;;;27.83;14.63;;;-3.20;99.90;;;;;;5031147;28;20465;-85
2022/12/13 06:06:28;;;;;;;23.77;13.83;;;-3.20;99.90;;;;;;5033841;28;20444;-84
2022/12/13 06:08:58;;;;;;;22.40;14.20;;;-3.20;99.90;;;;;;5033711;28;20456;-85
2022/12/13 06:11:25;;;;;;;21.23;12.97;;;-3.20;99.90;;;;;;5033890;28;20453;-85
2022/12/13 06:13:52;;;;;;;26.03;13.53;;;-3.20;99.90;;;;;;5033106;28;20444;-84
2022/12/13 06:16:19;;;;;;;23.10;13.70;;;-3.20;99.90;;;;;;5033502;28;20848;-84
2022/12/13 06:18:46;;;;;;;24.80;14.13;;;-3.30;99.90;;;;;;5033403;28;20449;-84
2022/12/13 06:21:14;;;;;;;25.93;14.77;;;-3.40;99.90;;;;;;5033416;28;20455;-85
2022/12/13 06:23:41;;;;;;;27.10;15.00;;;-3.40;99.90;;;;;;5033582;28;20449;-84
2022/12/13 06:26:09;;;;;;;24.77;14.03;;;-3.40;99.90;;;;;;5033197;28;20821;-85
2022/12/13 06:28:36;;;;;;;25.20;14.63;;;-3.40;99.90;;;;;;5019286;28;20474;-84
2022/12/13 06:31:03;;;;;;;23.10;13.70;;;-3.40;99.90;;;;;;5033051;28;20467;-82
2022/12/13 06:33:34;;;;;;;22.80;13.10;;;-3.40;99.90;;;;;;5033745;28;20460;-81
2022/12/13 06:36:01;;;;;;;30.00;14.03;;;-3.50;99.90;;;;;;5032750;28;21017;-84
2022/12/13 06:38:28;;;;;;;22.20;13.07;;;-3.60;99.90;;;;;;5033045;28;20452;-82
2022/12/13 06:40:54;;;;;;;24.47;14.10;;;-3.70;99.90;;;;;;5032421;28;20456;-82
2022/12/13 06:43:22;;;;;;;24.67;13.77;;;-3.60;99.90;;;;;;5032833;28;20448;-83
2022/12/13 06:45:52;;;;;;;27.33;14.13;;;-3.60;99.90;;;;;;5018814;28;20453;-84
2022/12/13 06:48:18;;;;;;;23.37;14.20;;;-3.60;99.90;;;;;;5033320;28;20449;-84
2022/12/13 06:50:45;;;;;;;22.33;13.13;;;-3.60;99.90;;;;;;5027411;28;20456;-82
2022/12/13 06:53:12;;;;;;;26.67;14.13;;;-3.50;99.90;;;;;;5024438;28;20453;-82
2022/12/13 06:55:39;;;;;;;24.17;14.17;;;-3.40;99.90;;;;;;5033003;28;20507;-83
2022/12/13 06:58:06;;;;;;;22.87;13.93;;;-3.50;99.90;;;;;;5032959;28;20457;-84
2022/12/13 07:00:34;;;;;;;22.43;13.33;;;-3.40;99.90;;;;;;5032416;28;20451;-83
2022/12/13 07:03:01;;;;;;;20.60;12.77;;;-3.40;99.90;;;;;;5033398;28;20452;-83
2022/12/13 07:05:27;;;;;;;26.23;14.40;;;-3.30;99.90;;;;;;5027508;28;20448;-85
2022/12/13 07:07:54;;;;;;;24.73;13.87;;;-3.40;99.90;;;;;;5026926;28;20433;-84
2022/12/13 07:10:22;;;;;;;34.23;15.10;;;-3.50;99.90;;;;;;5015205;28;20582;-83
2022/12/13 07:12:48;;;;;;;27.33;15.37;;;-3.70;99.90;;;;;;5025476;28;20561;-85
2022/12/13 07:15:15;;;;;;;27.40;15.07;;;-3.70;99.90;;;;;;5033329;28;20626;-83
2022/12/13 07:17:44;;;;;;;30.83;14.97;;;-3.60;99.90;;;;;;5033798;28;20448;-86
2022/12/13 07:20:13;;;;;;;25.50;14.27;;;-3.50;99.90;;;;;;5034426;28;20560;-85
2022/12/13 07:22:41;;;;;;;24.20;14.90;;;-3.30;99.90;;;;;;5033877;28;20456;-88
2022/12/13 07:25:08;;;;;;;24.53;14.47;;;-3.30;99.90;;;;;;5032096;28;20503;-87
2022/12/13 07:27:35;;;;;;;27.43;15.17;;;-3.30;99.90;;;;;;5027173;28;20464;-88
2022/12/13 07:30:02;;;;;;;28.60;15.60;;;-3.30;99.90;;;;;;5028711;28;20530;-87
2022/12/13 07:32:29;;;;;;;26.33;14.50;;;-3.30;99.90;;;;;;5023922;28;20460;-84
2022/12/13 07:34:58;;;;;;;29.27;15.33;;;-3.30;99.90;;;;;;5029296;28;20433;-86
2022/12/13 07:37:25;;;;;;;27.60;16.07;;;-3.30;99.90;;;;;;5038829;28;20483;-88
2022/12/13 07:39:53;;;;;;;24.77;15.40;;;-3.30;99.90;;;;;;5041267;28;20469;-88
2022/12/13 07:42:20;;;;;;;30.00;15.20;;;-3.20;99.90;;;;;;5040410;28;20441;-86
2022/12/13 07:44:47;;;;;;;30.17;16.07;;;-3.20;99.90;;;;;;5039599;28;20817;-87
2022/12/13 07:47:14;;;;;;;29.97;15.87;;;-3.20;99.90;;;;;;5039225;28;20483;-85
2022/12/13 07:49:41;;;;;;;36.73;17.23;;;-3.20;99.90;;;;;;5036171;28;20443;-88
2022/12/13 07:52:12;;;;;;;26.47;15.17;;;-3.20;99.90;;;;;;5032729;28;20541;-88
2022/12/13 07:54:44;;;;;;;34.90;16.37;;;-3.20;99.90;;;;;;5021231;28;20460;-86
2022/12/13 07:57:12;;;;;;;24.83;14.87;;;-3.20;99.90;;;;;;5022539;28;20493;-86
2022/12/13 07:59:38;;;;;;;25.67;15.60;;;-3.30;99.90;;;;;;5020650;28;20449;-87
2022/12/13 08:02:06;;;;;;;25.17;15.53;;;-3.30;99.90;;;;;;5035591;28;20830;-86
2022/12/13 08:04:33;;;;;;;29.33;15.57;;;-3.20;99.90;;;;;;5039660;28;20440;-84
2022/12/13 08:07:00;;;;;;;23.73;14.77;;;-3.10;99.90;;;;;;5039009;28;20441;-87
2022/12/13 08:09:29;;;;;;;26.23;14.87;;;-3.20;99.90;;;;;;5040070;28;20823;-87
2022/12/13 08:11:56;;;;;;;30.03;15.47;;;-3.20;99.90;;;;;;5039135;28;20495;-86
2022/12/13 08:14:23;;;;;;;29.27;15.83;;;-3.10;99.90;;;;;;5034276;28;20452;-84
2022/12/13 08:16:50;;;;;;;32.83;21.40;;;-3.10;99.90;;;;;;5039388;28;20447;-85
2022/12/13 08:19:17;;;;;;;26.60;16.10;;;-2.80;99.90;;;;;;5028160;28;20204;-87
2022/12/13 08:21:44;;;;;;;24.83;15.03;;;-2.70;99.90;;;;;;5025674;28;20456;-85
2022/12/13 08:24:12;;;;;;;29.00;15.90;;;-2.60;99.90;;;;;;5037525;28;20444;-89
2022/12/13 08:26:40;;;;;;;28.93;14.67;;;-2.50;99.90;;;;;;5032413;28;20441;-86
2022/12/13 08:29:07;;;;;;;32.90;15.90;;;-2.50;99.90;;;;;;5029738;28;20444;-85
2022/12/13 08:31:34;;;;;;;31.93;16.30;;;-2.50;99.90;;;;;;5032778;28;20443;-85
2022/12/13 08:34:01;;;;;;;32.60;14.30;;;-2.40;99.90;;;;;;5040685;28;20446;-85
2022/12/13 08:36:27;;;;;;;29.13;14.53;;;-2.40;99.90;;;;;;5033735;28;20468;-85
2022/12/13 08:39:01;;;;;;;23.00;14.30;;;-2.40;99.90;;;;;;5025460;28;20972;-87
2022/12/13 08:41:30;;;;;;;30.00;14.67;;;-2.40;99.90;;;;;;5036717;28;20433;-85
2022/12/13 08:44:00;;;;;;;27.60;13.57;;;-2.40;99.90;;;;;;5035253;28;20448;-83
2022/12/13 08:46:27;;;;;;;26.40;14.73;;;-2.40;99.90;;;;;;5035335;28;20815;-87
2022/12/13 08:48:54;;;;;;;33.33;15.00;;;-2.30;99.90;;;;;;5035663;28;20448;-87
2022/12/13 08:51:22;;;;;;;28.00;13.87;;;-2.30;99.90;;;;;;5035672;28;20474;-82
2022/12/13 08:53:49;;;;;;;24.67;14.30;;;-2.30;99.90;;;;;;5035644;28;20486;-87
2022/12/13 08:56:17;;;;;;;23.73;14.27;;;-2.20;99.90;;;;;;5035525;28;20494;-87
2022/12/13 08:58:48;;;;;;;24.27;13.90;;;-2.20;99.90;;;;;;5035206;28;20457;-84
2022/12/13 09:01:17;;;;;;;22.50;13.83;;;-2.20;99.90;;;;;;5032026;28;20438;-83
2022/12/13 09:03:44;;;;;;;26.43;14.50;;;-2.00;99.90;;;;;;5022499;28;20445;-80
2022/12/13 09:06:13;;;;;;;23.13;13.80;;;-1.90;99.90;;;;;;5015440;28;20449;-86
2022/12/13 09:08:41;;;;;;;23.07;14.20;;;-1.70;99.90;;;;;;5015367;28;20453;-86
2022/12/13 09:11:11;;;;;;;23.73;14.57;;;-1.70;99.90;;;;;;5015235;28;20809;-85
2022/12/13 09:13:40;;;;;;;25.23;13.63;;;-1.70;99.90;;;;;;5015460;28;20453;-85
2022/12/13 09:16:10;;;;;;;23.10;13.60;;;-1.70;99.90;;;;;;5015105;28;20936;-82
2022/12/13 09:18:38;;;;;;;23.00;13.97;;;-1.70;99.90;;;;;;5015060;28;20457;-86
2022/12/13 09:21:07;;;;;;;20.37;13.77;;;-1.80;99.90;;;;;;5014866;28;20854;-87
2022/12/13 09:23:34;;;;;;;22.37;13.63;;;-1.70;99.90;;;;;;5014395;28;20445;-84
2022/12/13 09:26:01;;;;;;;18.53;12.20;;;-1.50;99.90;;;;;;5015030;28;20452;-81
2022/12/13 09:28:28;;;;;;;23.37;14.23;;;-1.70;99.90;;;;;;5014345;28;20449;-84
2022/12/13 09:30:55;;;;;;;22.17;12.97;;;-1.60;99.90;;;;;;5014783;28;20449;-85
2022/12/13 09:33:22;;;;;;;24.60;14.23;;;-1.80;99.90;;;;;;5014695;28;20925;-88
2022/12/13 09:35:50;;;;;;;21.43;13.67;;;-1.50;99.90;;;;;;5017301;28;20449;-85
2022/12/13 09:38:17;;;;;;;24.23;13.77;;;-1.40;99.90;;;;;;5017386;28;20489;-85
2022/12/13 09:40:47;;;;;;;21.90;13.93;;;-1.20;99.90;;;;;;5027689;28;20928;-89
2022/12/13 09:43:21;;;;;;;19.47;13.40;;;-1.30;99.90;;;;;;5034570;28;20448;-90
2022/12/13 09:45:49;;;;;;;20.63;13.13;;;-1.10;99.90;;;;;;5034549;28;20432;-83
2022/12/13 09:48:18;;;;;;;20.93;13.33;;;-1.10;99.90;;;;;;5034208;28;20539;-85
2022/12/13 09:50:45;;;;;;;23.23;12.70;;;-1.00;99.90;;;;;;5034247;28;20455;-85
2022/12/13 09:53:16;;;;;;;26.13;14.23;;;-1.00;99.90;;;;;;5033701;28;20425;-84
2022/12/13 09:55:46;;;;;;;20.30;13.03;;;-1.00;99.90;;;;;;5034559;28;20472;-83
2022/12/13 09:58:17;;;;;;;25.90;12.70;;;-0.80;99.90;;;;;;5032050;28;20480;-85
2022/12/13 10:00:45;;;;;;;23.07;12.70;;;-1.00;99.90;;;;;;5025785;28;20449;-84
2022/12/13 10:03:14;;;;;;;18.27;12.33;;;-1.00;99.90;;;;;;5027859;28;20456;-86
2022/12/13 10:05:44;;;;;;;20.33;12.40;;;-1.00;99.90;;;;;;5033447;28;20443;-85
2022/12/13 10:08:14;;;;;;;17.57;11.10;;;-0.80;99.90;;;;;;5033873;28;20447;-90
2022/12/13 10:10:42;;;;;;;20.13;12.43;;;-0.80;99.90;;;;;;5033792;28;20442;-86
2022/12/13 10:13:16;;;;;;;21.93;12.87;;;-0.80;99.90;;;;;;5033426;28;20436;-91
2022/12/13 10:15:47;;;;;;;21.70;12.53;;;-0.60;99.90;;;;;;5033588;28;20889;-87
2022/12/13 10:18:21;;;;;;;20.37;11.47;;;-0.40;99.90;;;;;;5033603;28;20975;-85
2022/12/13 10:20:49;;;;;;;19.60;13.10;;;-0.50;99.90;;;;;;5033298;28;20923;-90
2022/12/13 10:23:18;;;;;;;19.97;12.67;;;-0.50;99.90;;;;;;5033325;28;20471;-87
2022/12/13 10:25:48;;;;;;;20.93;12.87;;;-0.50;99.90;;;;;;5030042;28;20448;-85
2022/12/13 10:28:17;;;;;;;18.43;12.10;;;-0.60;99.90;;;;;;5022651;28;20441;-86
2022/12/13 10:30:45;;;;;;;19.40;13.03;;;-0.60;99.90;;;;;;5019631;28;20444;-85
2022/12/13 10:33:22;;;;;;;19.63;12.40;;;-0.50;99.90;;;;;;5022387;28;20460;-82
2022/12/13 10:36:07;;;;;;;21.13;12.43;;;-0.40;99.90;;;;;;5026539;28;20866;-83
2022/12/13 10:38:38;;;;;;;19.73;12.40;;;-0.50;99.90;;;;;;5024438;28;20484;-84
2022/12/13 10:41:26;;;;;;;23.90;13.23;;;-0.20;99.90;;;;;;5020867;28;20445;-85
2022/12/13 10:44:17;;;;;;;18.80;11.90;;;-0.30;99.90;;;;;;5022359;28;20832;-83
2022/12/13 10:46:50;;;;;;;20.70;12.27;;;-0.10;99.90;;;;;;5033632;28;20452;-86
2022/12/13 10:49:19;;;;;;;18.47;12.03;;;-0.20;99.90;;;;;;5033395;28;20460;-86
2022/12/13 10:51:46;;;;;;;20.50;12.50;;;0.10;99.90;;;;;;5033419;28;20439;-83
2022/12/13 10:54:19;;;;;;;23.67;12.57;;;0.20;99.90;;;;;;5033309;28;20448;-83
2022/12/13 10:56:49;;;;;;;23.17;15.77;;;0.40;99.90;;;;;;5032531;28;20535;-85
2022/12/13 10:59:26;;;;;;;21.23;13.50;;;0.40;99.90;;;;;;5027307;28;20441;-84
2022/12/13 11:01:54;;;;;;;23.83;12.77;;;0.40;99.90;;;;;;5017180;28;20455;-86
2022/12/13 11:04:26;;;;;;;19.77;12.13;;;0.20;99.90;;;;;;5017403;28;20522;-85
2022/12/13 11:06:53;;;;;;;16.93;11.43;;;0.10;99.90;;;;;;5022644;28;20531;-83
2022/12/13 11:09:28;;;;;;;20.30;12.70;;;0.30;99.90;;;;;;5027727;28;20440;-86
2022/12/13 11:11:57;;;;;;;17.97;12.33;;;0.20;99.90;;;;;;5025133;28;20928;-84
2022/12/13 11:14:26;;;;;;;21.33;12.47;;;0.40;99.90;;;;;;5025174;28;20445;-84
2022/12/13 11:16:56;;;;;;;20.27;12.17;;;0.50;99.90;;;;;;5026705;28;20480;-84
2022/12/13 11:19:26;;;;;;;20.90;11.80;;;0.70;99.90;;;;;;5027991;28;20791;-84
2022/12/13 11:21:54;;;;;;;16.03;10.53;;;0.70;99.90;;;;;;5026448;28;20444;-85
2022/12/13 11:24:24;;;;;;;20.30;11.90;;;0.60;99.90;;;;;;5024326;28;20444;-84
2022/12/13 11:26:56;;;;;;;21.27;11.93;;;0.80;99.90;;;;;;5019075;28;20560;-81
2022/12/13 11:29:44;;;;;;;15.73;11.20;;;0.60;99.90;;;;;;5018235;28;20437;-88
2022/12/13 11:32:22;;;;;;;20.37;11.33;;;0.50;99.90;;;;;;5017700;28;20893;-90
2022/12/13 11:34:59;;;;;;;18.20;10.83;;;0.60;99.90;;;;;;5017724;28;20445;-87
2022/12/13 11:37:30;;;;;;;19.80;10.93;;;0.70;99.90;;;;;;5016617;28;20995;-90
2022/12/13 11:40:02;;;;;;;19.27;11.37;;;0.60;99.90;;;;;;5017220;28;20465;-89
2022/12/13 11:42:35;;;;;;;17.37;11.17;;;0.80;99.90;;;;;;5016916;28;20445;-91
2022/12/13 11:45:12;;;;;;;19.20;11.40;;;0.90;99.90;;;;;;5016249;28;20803;-89
2022/12/13 11:47:46;;;;;;;19.37;12.03;;;1.00;99.90;;;;;;5016693;28;20449;-88
2022/12/13 11:50:19;;;;;;;17.03;11.60;;;1.30;99.90;;;;;;5017325;28;20449;-87
2022/12/13 11:52:51;;;;;;;21.47;12.00;;;1.50;99.90;;;;;;5017144;28;20520;-87
2022/12/13 11:55:24;;;;;;;18.10;11.47;;;1.20;99.90;;;;;;5017392;28;20476;-88
2022/12/13 11:58:00;;;;;;;20.53;12.23;;;1.00;99.90;;;;;;5016611;28;20976;-89
2022/12/13 12:00:33;;;;;;;19.67;12.30;;;1.00;99.90;;;;;;5017037;28;20447;-87
2022/12/13 12:03:14;;;;;;;19.23;11.40;;;1.10;99.90;;;;;;5016577;28;20446;-89
2022/12/13 12:05:45;;;;;;;20.70;11.93;;;1.20;99.90;;;;;;5017289;28;20453;-87
2022/12/13 12:08:18;;;;;;;18.70;12.40;;;1.10;99.90;;;;;;5017267;28;20455;-89
2022/12/13 12:10:46;;;;;;;19.67;11.63;;;0.90;99.90;;;;;;5016875;28;20438;-89
2022/12/13 12:13:21;;;;;;;22.10;12.60;;;0.80;99.90;;;;;;5016123;28;20512;-88
2022/12/13 12:15:56;;;;;;;22.80;12.83;;;1.10;99.90;;;;;;5017046;28;20449;-90
2022/12/13 12:18:24;;;;;;;20.80;12.53;;;1.40;99.90;;;;;;5016534;28;20839;-88
2022/12/13 12:21:05;;;;;;;24.37;12.73;;;1.30;99.90;;;;;;5016842;28;20461;-88
2022/12/13 12:23:47;;;;;;;17.97;11.87;;;1.40;99.90;;;;;;5016224;28;20446;-88
2022/12/13 12:26:17;;;;;;;20.07;12.03;;;1.70;99.90;;;;;;5016608;28;20464;-87
2022/12/13 12:29:09;;;;;;;16.20;11.47;;;1.80;99.90;;;;;;5016642;28;20961;-88
2022/12/13 12:31:42;;;;;;;18.87;12.27;;;1.40;99.90;;;;;;5017023;28;20457;-87
2022/12/13 12:34:18;;;;;;;17.33;11.83;;;1.60;99.90;;;;;;5016429;28;20461;-87
2022/12/13 12:36:56;;;;;;;21.00;13.27;;;1.70;99.90;;;;;;5016524;28;20456;-89
2022/12/13 12:39:34;;;;;;;23.47;12.20;;;2.00;99.90;;;;;;5016591;28;20476;-90
2022/12/13 12:42:40;;;;;;;20.17;13.10;;;1.60;99.90;;;;;;5017206;28;20862;-88
2022/12/13 12:45:26;;;;;;;16.97;11.60;;;1.10;99.90;;;;;;4976645;28;20463;-87
2022/12/13 12:48:06;;;;;;;18.83;11.80;;;0.90;99.90;;;;;;4976172;28;20445;-85